Time;durP1;ratioP1;P1;durP2;ratioP2;P2;SDS_P1;SDS_P2;PMS_P1;PMS_P2;Temp;Humidity;BMP_temperature;BMP_pressure;BME280_temperature;BME280_humidity;BME280_pressure;Samples;Min_cycle;Max_cycle;Signal;HPM_P1;HPM_P2
2023/04/21 00:00:28;;;;;;;31.70;16.73;;;8.10;99.90;;;;;;4208731;28;20225;-74
2023/04/21 00:02:32;;;;;;;32.57;16.83;;;8.10;99.90;;;;;;4208339;28;20694;-73
2023/04/21 00:04:34;;;;;;;33.37;17.80;;;8.10;99.90;;;;;;4207796;28;20221;-74
2023/04/21 00:06:36;;;;;;;32.73;17.07;;;8.10;99.90;;;;;;4209742;28;20449;-73
2023/04/21 00:08:39;;;;;;;34.03;17.77;;;8.00;99.90;;;;;;4208941;28;20289;-73
2023/04/21 00:10:41;;;;;;;32.93;17.53;;;8.00;99.90;;;;;;4204102;28;20218;-73
2023/04/21 00:12:42;;;;;;;37.00;18.03;;;8.00;99.90;;;;;;4207599;28;20229;-73
2023/04/21 00:14:46;;;;;;;31.10;16.80;;;8.00;99.90;;;;;;4214088;28;20554;-73
2023/04/21 00:16:51;;;;;;;31.47;17.17;;;8.00;99.90;;;;;;4206914;28;20482;-74
2023/04/21 00:18:53;;;;;;;35.67;17.70;;;7.90;99.90;;;;;;4204454;28;21266;-73
2023/04/21 00:20:55;;;;;;;34.93;17.43;;;7.90;99.90;;;;;;4210495;28;20288;-74
2023/04/21 00:22:57;;;;;;;32.83;18.17;;;7.90;99.90;;;;;;4210207;28;20534;-73
2023/04/21 00:24:59;;;;;;;32.43;17.23;;;7.90;99.90;;;;;;4189856;28;20491;-73
2023/04/21 00:27:02;;;;;;;36.13;18.00;;;7.90;99.90;;;;;;4205781;28;20201;-73
2023/04/21 00:29:04;;;;;;;34.50;17.53;;;7.90;99.90;;;;;;4205219;28;20690;-73
2023/04/21 00:31:07;;;;;;;32.40;16.93;;;7.90;99.90;;;;;;4205991;28;20897;-73
2023/04/21 00:33:09;;;;;;;30.40;16.93;;;7.80;99.90;;;;;;4208911;28;20581;-74
2023/04/21 00:35:11;;;;;;;35.07;17.90;;;7.80;99.90;;;;;;4207074;28;20293;-73
2023/04/21 00:37:13;;;;;;;34.13;18.03;;;7.80;99.90;;;;;;4208626;28;20641;-73
2023/04/21 00:39:15;;;;;;;32.10;18.20;;;7.80;99.90;;;;;;4210672;28;20480;-73
2023/04/21 00:41:17;;;;;;;32.87;18.40;;;7.80;99.90;;;;;;4212371;28;20209;-73
2023/04/21 00:43:18;;;;;;;35.37;18.80;;;7.80;99.90;;;;;;4207452;28;20296;-74
2023/04/21 00:45:20;;;;;;;36.73;18.80;;;7.80;99.90;;;;;;4207278;28;20827;-74
2023/04/21 00:47:24;;;;;;;32.27;17.97;;;7.70;99.90;;;;;;4210421;28;20300;-74
2023/04/21 00:49:26;;;;;;;32.70;17.00;;;7.70;99.90;;;;;;4206420;28;20238;-72
2023/04/21 00:51:30;;;;;;;33.63;17.43;;;7.70;99.90;;;;;;4210286;28;20237;-73
2023/04/21 00:53:32;;;;;;;30.43;17.00;;;7.70;99.90;;;;;;4206831;28;20228;-74
2023/04/21 00:55:34;;;;;;;39.20;19.30;;;7.70;99.90;;;;;;4207545;28;20301;-73
2023/04/21 00:57:37;;;;;;;35.87;18.37;;;7.60;99.90;;;;;;4210608;28;20537;-73
2023/04/21 00:59:38;;;;;;;35.67;19.00;;;7.70;99.90;;;;;;4205358;28;21058;-73
2023/04/21 01:01:40;;;;;;;41.97;21.17;;;7.70;99.90;;;;;;4207364;28;20579;-73
2023/04/21 01:03:45;;;;;;;38.77;19.53;;;7.60;99.90;;;;;;4208614;28;20474;-73
2023/04/21 01:05:47;;;;;;;36.60;18.50;;;7.60;99.90;;;;;;4208544;28;20462;-74
2023/04/21 01:07:49;;;;;;;33.83;17.97;;;7.70;99.90;;;;;;4209830;28;20459;-73
2023/04/21 01:09:54;;;;;;;36.77;19.47;;;7.60;99.90;;;;;;4207504;28;20512;-73
2023/04/21 01:12:03;;;;;;;38.67;20.23;;;7.60;99.90;;;;;;4206241;28;20513;-73
2023/04/21 01:14:05;;;;;;;40.13;20.20;;;7.60;99.90;;;;;;4206958;28;20457;-73
2023/04/21 01:16:08;;;;;;;37.70;19.63;;;7.60;99.90;;;;;;4208888;28;20542;-73
2023/04/21 01:18:10;;;;;;;37.43;19.67;;;7.60;99.90;;;;;;4206393;28;20554;-74
2023/04/21 01:20:15;;;;;;;37.17;19.30;;;7.60;99.90;;;;;;4204316;28;21008;-73
2023/04/21 01:22:18;;;;;;;37.43;18.80;;;7.60;99.90;;;;;;4210250;28;20461;-73
2023/04/21 01:24:20;;;;;;;38.43;19.63;;;7.60;99.90;;;;;;4207840;28;21538;-73
2023/04/21 01:26:22;;;;;;;36.27;18.80;;;7.60;99.90;;;;;;4206170;28;20469;-74
2023/04/21 01:28:25;;;;;;;38.67;19.53;;;7.60;99.90;;;;;;4206776;28;20894;-73
2023/04/21 01:30:27;;;;;;;36.60;19.43;;;7.60;99.90;;;;;;4207267;28;20898;-73
2023/04/21 01:32:30;;;;;;;35.87;19.23;;;7.60;99.90;;;;;;4206758;28;21123;-74
2023/04/21 01:34:32;;;;;;;36.83;18.70;;;7.50;99.90;;;;;;4205461;28;20534;-73
2023/04/21 01:36:35;;;;;;;42.13;21.40;;;7.60;99.90;;;;;;4206454;28;20463;-73
2023/04/21 01:38:40;;;;;;;43.27;20.20;;;7.60;99.90;;;;;;4205921;28;20462;-74
2023/04/21 01:40:42;;;;;;;39.70;20.57;;;7.60;99.90;;;;;;4209773;28;21015;-73
2023/04/21 01:42:44;;;;;;;43.83;21.80;;;7.50;99.90;;;;;;4205322;28;20498;-73
2023/04/21 01:44:48;;;;;;;41.70;21.20;;;7.50;99.90;;;;;;4209386;28;20550;-73
2023/04/21 01:46:50;;;;;;;42.63;21.13;;;7.60;99.90;;;;;;4205687;28;20463;-73
2023/04/21 01:48:52;;;;;;;42.87;22.03;;;7.50;99.90;;;;;;4207525;28;21108;-73
2023/04/21 01:50:54;;;;;;;38.43;19.63;;;7.50;99.90;;;;;;4205848;28;20546;-74
2023/04/21 01:52:56;;;;;;;39.80;21.00;;;7.50;99.90;;;;;;4205205;28;20565;-74
2023/04/21 01:55:01;;;;;;;40.83;19.93;;;7.50;99.90;;;;;;4208694;28;20510;-73
2023/04/21 01:57:03;;;;;;;40.67;21.00;;;7.50;99.90;;;;;;4208714;28;20457;-73
2023/04/21 01:59:05;;;;;;;42.13;21.83;;;7.50;99.90;;;;;;4207584;28;20542;-72
2023/04/21 02:01:07;;;;;;;39.50;20.30;;;7.50;99.90;;;;;;4207516;28;20478;-73
2023/04/21 02:03:09;;;;;;;38.10;19.50;;;7.50;99.90;;;;;;4207391;28;20483;-73
2023/04/21 02:05:11;;;;;;;44.67;20.83;;;7.50;99.90;;;;;;4211125;28;20568;-73
2023/04/21 02:07:12;;;;;;;39.30;20.33;;;7.50;99.90;;;;;;4208267;28;20468;-73
2023/04/21 02:09:14;;;;;;;43.90;21.13;;;7.50;99.90;;;;;;4207562;28;20480;-73
2023/04/21 02:11:17;;;;;;;38.80;19.97;;;7.50;99.90;;;;;;4209122;28;20487;-73
2023/04/21 02:13:19;;;;;;;39.07;19.80;;;7.50;99.90;;;;;;4209289;28;21436;-73
2023/04/21 02:15:21;;;;;;;37.00;20.17;;;7.50;99.90;;;;;;4208850;28;20462;-73
2023/04/21 02:17:23;;;;;;;44.00;21.20;;;7.50;99.90;;;;;;4206950;28;20463;-73
2023/04/21 02:19:25;;;;;;;40.33;19.73;;;7.50;99.90;;;;;;4206314;28;21128;-73
2023/04/21 02:21:27;;;;;;;39.37;20.10;;;7.60;99.90;;;;;;4214868;28;20535;-74
2023/04/21 02:23:29;;;;;;;38.17;20.10;;;7.60;99.90;;;;;;4212496;28;20874;-73
2023/04/21 02:25:31;;;;;;;39.20;19.47;;;7.60;99.90;;;;;;4207605;28;20494;-72
2023/04/21 02:27:34;;;;;;;41.23;20.03;;;7.60;99.90;;;;;;4211390;28;20470;-73
2023/04/21 02:29:36;;;;;;;41.33;18.57;;;7.60;99.90;;;;;;4214041;28;20546;-73
2023/04/21 02:31:38;;;;;;;37.63;18.80;;;7.60;99.90;;;;;;4213477;28;20467;-73
2023/04/21 02:33:40;;;;;;;37.93;19.70;;;7.50;99.90;;;;;;4208436;28;21310;-73
2023/04/21 02:35:42;;;;;;;33.37;17.60;;;7.50;99.90;;;;;;4214843;28;20825;-73
2023/04/21 02:37:44;;;;;;;38.87;18.47;;;7.50;99.90;;;;;;4223078;28;20915;-72
2023/04/21 02:39:46;;;;;;;42.03;19.57;;;7.50;99.90;;;;;;4218637;28;20517;-72
2023/04/21 02:41:48;;;;;;;41.17;19.33;;;7.50;99.90;;;;;;4208784;28;20542;-72
2023/04/21 02:43:51;;;;;;;33.17;17.90;;;7.50;99.90;;;;;;4214304;28;20810;-72
2023/04/21 02:45:53;;;;;;;33.33;17.53;;;7.50;99.90;;;;;;4208987;28;20507;-73
2023/04/21 02:47:55;;;;;;;36.03;17.17;;;7.40;99.90;;;;;;4210609;28;21258;-73
2023/04/21 02:49:57;;;;;;;34.83;17.47;;;7.50;99.90;;;;;;4209676;28;21028;-72
2023/04/21 02:51:59;;;;;;;34.13;16.57;;;7.50;99.90;;;;;;4211838;28;20478;-73
2023/04/21 02:54:01;;;;;;;34.40;18.27;;;7.50;99.90;;;;;;4211909;28;20926;-73
2023/04/21 02:56:03;;;;;;;33.20;18.10;;;7.50;99.90;;;;;;4211716;28;20982;-73
2023/04/21 02:58:06;;;;;;;33.57;18.00;;;7.50;99.90;;;;;;4210739;28;20455;-73
2023/04/21 03:00:11;;;;;;;37.83;17.70;;;7.50;99.90;;;;;;4209968;28;20575;-73
2023/04/21 03:02:13;;;;;;;35.93;17.50;;;7.50;99.90;;;;;;4209755;28;20459;-73
2023/04/21 03:04:15;;;;;;;34.93;17.50;;;7.50;99.90;;;;;;4211565;28;21035;-73
2023/04/21 03:06:17;;;;;;;35.77;18.07;;;7.50;99.90;;;;;;4210044;28;21116;-73
2023/04/21 03:08:18;;;;;;;31.77;17.37;;;7.50;99.90;;;;;;4211671;28;20464;-73
2023/04/21 03:10:20;;;;;;;37.97;17.80;;;7.50;99.90;;;;;;4208719;28;20520;-73
2023/04/21 03:12:22;;;;;;;32.20;16.37;;;7.50;99.90;;;;;;4209752;28;20453;-73
2023/04/21 03:14:24;;;;;;;32.97;16.80;;;7.40;99.90;;;;;;4210611;28;20492;-73
2023/04/21 03:16:28;;;;;;;32.30;17.03;;;7.50;99.90;;;;;;4207402;28;20464;-73
2023/04/21 03:18:30;;;;;;;39.23;18.03;;;7.40;99.90;;;;;;4207482;28;20467;-73
2023/04/21 03:20:32;;;;;;;36.30;17.40;;;7.40;99.90;;;;;;4206164;28;21016;-73
2023/04/21 03:22:34;;;;;;;33.53;17.47;;;7.40;99.90;;;;;;4207162;28;20528;-72
2023/04/21 03:24:36;;;;;;;31.87;16.30;;;7.40;99.90;;;;;;4211116;28;20481;-73
2023/04/21 03:26:39;;;;;;;29.87;16.63;;;7.40;99.90;;;;;;4206742;28;20857;-72
2023/04/21 03:28:40;;;;;;;37.17;16.83;;;7.40;99.90;;;;;;4209072;28;20529;-73
2023/04/21 03:30:42;;;;;;;33.73;16.77;;;7.40;99.90;;;;;;4210921;28;20479;-73
2023/04/21 03:32:45;;;;;;;33.40;16.57;;;7.40;99.90;;;;;;4208470;28;20466;-73
2023/04/21 03:34:49;;;;;;;33.03;17.10;;;7.50;99.90;;;;;;4208657;28;20483;-73
2023/04/21 03:36:50;;;;;;;31.37;16.13;;;7.40;99.90;;;;;;4205996;28;20540;-73
2023/04/21 03:38:52;;;;;;;27.67;15.23;;;7.40;99.90;;;;;;4211452;28;20476;-73
2023/04/21 03:40:54;;;;;;;28.33;14.60;;;7.50;99.90;;;;;;4209887;28;20472;-73
2023/04/21 03:42:56;;;;;;;29.40;14.83;;;7.40;99.90;;;;;;4208727;28;20474;-73
2023/04/21 03:45:02;;;;;;;31.67;16.27;;;7.40;99.90;;;;;;4208608;28;21193;-77
2023/04/21 03:47:04;;;;;;;28.33;15.77;;;7.40;99.90;;;;;;4209178;28;20478;-74
2023/04/21 03:49:07;;;;;;;32.43;14.93;;;7.40;99.90;;;;;;4204350;28;20485;-73
2023/04/21 03:51:09;;;;;;;28.47;14.97;;;7.40;99.90;;;;;;4203627;28;20539;-73
2023/04/21 03:53:11;;;;;;;31.17;15.50;;;7.50;99.90;;;;;;4207117;28;20538;-73
2023/04/21 03:55:13;;;;;;;29.77;14.67;;;7.30;99.90;;;;;;4206856;28;20549;-73
2023/04/21 03:57:15;;;;;;;27.97;15.47;;;7.40;99.90;;;;;;4210213;28;20466;-73
2023/04/21 03:59:17;;;;;;;34.70;16.07;;;7.40;99.90;;;;;;4208722;28;20476;-72
2023/04/21 04:01:19;;;;;;;29.67;14.77;;;7.40;99.90;;;;;;4206892;28;20295;-73
2023/04/21 04:03:21;;;;;;;27.60;14.93;;;7.40;99.90;;;;;;4208759;28;20467;-73
2023/04/21 04:05:25;;;;;;;29.43;14.87;;;7.40;99.90;;;;;;4206717;28;20480;-73
2023/04/21 04:07:26;;;;;;;27.50;14.73;;;7.40;99.90;;;;;;4205605;28;21142;-74
2023/04/21 04:09:28;;;;;;;33.17;16.53;;;7.40;99.90;;;;;;4209853;28;20498;-73
2023/04/21 04:11:30;;;;;;;29.53;15.33;;;7.40;99.90;;;;;;4209513;28;20445;-73
2023/04/21 04:13:32;;;;;;;27.97;14.47;;;7.40;99.90;;;;;;4208426;28;21046;-73
2023/04/21 04:15:34;;;;;;;30.50;14.83;;;7.30;99.90;;;;;;4206518;28;20217;-73
2023/04/21 04:17:36;;;;;;;25.53;14.63;;;7.30;99.90;;;;;;4207566;28;20870;-73
2023/04/21 04:19:41;;;;;;;23.73;13.63;;;7.30;99.90;;;;;;4209035;28;20552;-73
2023/04/21 04:21:47;;;;;;;27.13;13.87;;;7.30;99.90;;;;;;4206642;28;20466;-73
2023/04/21 04:23:50;;;;;;;24.10;13.80;;;7.30;99.90;;;;;;4208777;28;20538;-74
2023/04/21 04:25:52;;;;;;;25.67;13.57;;;7.30;99.90;;;;;;4207853;28;20510;-73
2023/04/21 04:27:54;;;;;;;28.10;13.93;;;7.30;99.90;;;;;;4213198;28;20467;-73
2023/04/21 04:29:56;;;;;;;26.83;14.37;;;7.30;99.90;;;;;;4212469;28;20563;-73
2023/04/21 04:32:00;;;;;;;23.10;12.30;;;7.20;99.90;;;;;;4208440;28;20454;-73
2023/04/21 04:34:02;;;;;;;27.30;12.60;;;7.20;99.90;;;;;;4207307;28;20494;-73
2023/04/21 04:36:04;;;;;;;23.87;13.23;;;7.20;99.90;;;;;;4211948;28;20467;-73
2023/04/21 04:38:07;;;;;;;27.33;14.13;;;7.20;99.90;;;;;;4205996;28;21257;-73
2023/04/21 04:40:10;;;;;;;28.57;14.17;;;7.20;99.90;;;;;;4202105;28;20559;-73
2023/04/21 04:42:13;;;;;;;26.30;14.17;;;7.20;99.90;;;;;;4204604;28;20515;-73
2023/04/21 04:44:16;;;;;;;28.27;13.77;;;7.20;99.90;;;;;;4210678;28;20514;-73
2023/04/21 04:46:19;;;;;;;29.10;13.67;;;7.20;99.90;;;;;;4206929;28;20455;-72
2023/04/21 04:48:24;;;;;;;27.77;13.10;;;7.20;99.90;;;;;;4205095;28;21470;-73
2023/04/21 04:50:26;;;;;;;25.37;13.23;;;7.20;99.90;;;;;;4207862;28;21024;-73
2023/04/21 04:52:28;;;;;;;27.87;12.97;;;7.20;99.90;;;;;;4205425;28;20458;-73
2023/04/21 04:54:31;;;;;;;27.23;13.53;;;7.20;99.90;;;;;;4206023;28;20487;-72
2023/04/21 04:56:33;;;;;;;25.87;13.47;;;7.20;99.90;;;;;;4207639;28;20904;-72
2023/04/21 04:58:35;;;;;;;24.70;12.83;;;7.20;99.90;;;;;;4203506;28;20557;-73
2023/04/21 05:00:36;;;;;;;25.57;12.57;;;7.20;99.90;;;;;;4205452;28;20501;-73
2023/04/21 05:02:38;;;;;;;24.13;13.33;;;7.20;99.90;;;;;;4211350;28;20573;-73
2023/04/21 05:04:40;;;;;;;27.30;13.37;;;7.20;99.90;;;;;;4210563;28;20546;-77
2023/04/21 05:06:42;;;;;;;25.73;14.20;;;7.20;99.90;;;;;;4208262;28;20495;-72
2023/04/21 05:08:44;;;;;;;28.40;13.47;;;7.30;99.90;;;;;;4198177;28;20480;-72
2023/04/21 05:10:48;;;;;;;25.47;13.00;;;7.20;99.90;;;;;;4204525;28;20479;-73
2023/04/21 05:12:50;;;;;;;24.97;13.23;;;7.30;99.90;;;;;;4204768;28;21031;-72
2023/04/21 05:14:51;;;;;;;27.27;14.03;;;7.30;99.90;;;;;;4203307;28;20574;-72
2023/04/21 05:16:53;;;;;;;26.57;14.03;;;7.30;99.90;;;;;;4205963;28;20478;-74
2023/04/21 05:18:55;;;;;;;27.70;13.37;;;7.40;99.90;;;;;;4207853;28;20506;-73
2023/04/21 05:20:57;;;;;;;23.00;13.27;;;7.40;99.90;;;;;;4211709;28;20549;-73
2023/04/21 05:23:00;;;;;;;31.23;13.27;;;7.40;99.90;;;;;;4207750;28;20466;-73
2023/04/21 05:25:02;;;;;;;24.70;13.67;;;7.40;99.90;;;;;;4206550;28;20454;-73
2023/04/21 05:27:06;;;;;;;32.03;14.73;;;7.40;99.90;;;;;;4211511;28;20852;-73
2023/04/21 05:29:08;;;;;;;24.13;13.33;;;7.50;99.90;;;;;;4205184;28;20466;-72
2023/04/21 05:31:10;;;;;;;26.03;13.40;;;7.50;99.90;;;;;;4205386;28;20558;-73
2023/04/21 05:33:12;;;;;;;32.33;14.53;;;7.50;99.90;;;;;;4207060;28;20516;-73
2023/04/21 05:35:14;;;;;;;32.13;14.30;;;7.50;99.90;;;;;;4207807;28;20501;-72
2023/04/21 05:37:15;;;;;;;31.10;14.83;;;7.50;99.90;;;;;;4208344;28;20463;-72
2023/04/21 05:39:18;;;;;;;27.20;13.67;;;7.60;99.90;;;;;;4209281;28;20569;-72
2023/04/21 05:41:21;;;;;;;25.60;13.77;;;7.60;99.90;;;;;;4212001;28;20549;-73
2023/04/21 05:43:24;;;;;;;27.67;14.13;;;7.60;99.90;;;;;;4216967;28;20455;-72
2023/04/21 05:45:26;;;;;;;28.17;14.23;;;7.60;99.90;;;;;;4209803;28;20983;-74
2023/04/21 05:47:28;;;;;;;30.50;14.00;;;7.70;99.90;;;;;;4213567;28;20291;-73
2023/04/21 05:49:30;;;;;;;29.57;14.13;;;7.70;99.90;;;;;;4210885;28;20578;-72
2023/04/21 05:51:32;;;;;;;28.63;14.60;;;7.70;99.90;;;;;;4211003;28;20228;-72
2023/04/21 05:53:34;;;;;;;24.97;13.50;;;7.70;99.90;;;;;;4208997;28;20502;-74
2023/04/21 05:55:36;;;;;;;26.90;14.23;;;7.80;99.90;;;;;;4212095;28;20500;-73
2023/04/21 05:57:38;;;;;;;25.17;13.73;;;7.80;99.90;;;;;;4207516;28;20546;-72
2023/04/21 05:59:42;;;;;;;22.83;12.80;;;7.80;99.90;;;;;;4208348;28;20483;-73
2023/04/21 06:01:44;;;;;;;35.80;15.40;;;7.90;99.90;;;;;;4208972;28;20669;-72
2023/04/21 06:03:48;;;;;;;28.17;13.93;;;8.20;99.90;;;;;;4211694;28;21587;-73
2023/04/21 06:05:54;;;;;;;26.00;13.23;;;8.00;99.90;;;;;;4209061;28;20454;-73
2023/04/21 06:07:56;;;;;;;28.67;14.20;;;7.90;99.90;;;;;;4209460;28;20470;-72
2023/04/21 06:09:58;;;;;;;24.30;13.00;;;7.90;99.90;;;;;;4210921;28;20665;-72
2023/04/21 06:12:00;;;;;;;25.93;13.57;;;8.00;99.90;;;;;;4209130;28;20582;-73
2023/04/21 06:14:02;;;;;;;26.93;14.07;;;8.00;99.90;;;;;;4211666;28;20235;-73
2023/04/21 06:16:06;;;;;;;26.80;13.20;;;8.10;99.90;;;;;;4214363;28;20295;-73
2023/04/21 06:18:08;;;;;;;26.73;14.10;;;8.10;99.90;;;;;;4206826;28;20224;-73
2023/04/21 06:20:10;;;;;;;27.57;13.17;;;8.10;99.90;;;;;;4208174;28;20229;-71
2023/04/21 06:22:12;;;;;;;28.57;13.50;;;8.20;99.90;;;;;;4208334;28;20204;-73
2023/04/21 06:24:14;;;;;;;27.47;13.83;;;8.20;99.90;;;;;;4211697;28;20206;-73
2023/04/21 06:26:16;;;;;;;30.10;14.60;;;8.30;99.90;;;;;;4211397;28;20247;-73
2023/04/21 06:28:18;;;;;;;29.50;14.40;;;8.30;99.90;;;;;;4210579;28;20236;-73
2023/04/21 06:30:20;;;;;;;34.63;14.43;;;8.30;99.90;;;;;;4211386;28;20236;-73
2023/04/21 06:32:23;;;;;;;25.63;13.27;;;8.40;99.90;;;;;;4211309;28;20329;-73
2023/04/21 06:34:25;;;;;;;28.00;13.50;;;8.40;99.90;;;;;;4207483;28;20217;-73
2023/04/21 06:36:27;;;;;;;27.03;13.57;;;8.70;99.90;;;;;;4215406;28;20663;-73
2023/04/21 06:38:29;;;;;;;25.67;13.23;;;8.50;99.90;;;;;;4208707;28;21189;-73
2023/04/21 06:40:31;;;;;;;20.60;11.53;;;8.50;99.90;;;;;;4208539;28;20344;-73
2023/04/21 06:42:33;;;;;;;29.13;13.00;;;8.60;99.90;;;;;;4209207;28;20220;-73
2023/04/21 06:44:36;;;;;;;26.43;13.63;;;8.60;99.90;;;;;;4206481;28;20289;-73
2023/04/21 06:46:38;;;;;;;26.50;13.00;;;8.60;99.90;;;;;;4210590;28;20577;-74
2023/04/21 06:48:42;;;;;;;29.03;13.20;;;8.60;99.90;;;;;;4207493;28;20261;-74
2023/04/21 06:50:45;;;;;;;21.50;12.43;;;8.70;99.90;;;;;;4206473;28;20660;-73
2023/04/21 06:52:47;;;;;;;28.50;12.80;;;8.70;99.90;;;;;;4208329;28;20301;-73
2023/04/21 06:54:49;;;;;;;28.03;13.23;;;8.80;99.90;;;;;;4208688;28;20226;-72
2023/04/21 06:56:51;;;;;;;19.67;11.37;;;8.80;99.90;;;;;;4210232;28;20305;-74
2023/04/21 06:58:53;;;;;;;25.90;12.37;;;8.90;99.90;;;;;;4206505;28;20272;-73
2023/04/21 07:01:00;;;;;;;20.00;10.80;;;9.00;99.90;;;;;;4208132;28;20282;-73
2023/04/21 07:03:02;;;;;;;25.73;11.87;;;9.10;99.90;;;;;;4209953;28;20237;-73
2023/04/21 07:05:06;;;;;;;22.23;11.60;;;9.20;99.90;;;;;;4207691;28;20217;-73
2023/04/21 07:07:08;;;;;;;22.27;11.43;;;9.20;99.90;;;;;;4208480;28;20251;-73
2023/04/21 07:09:10;;;;;;;25.80;11.13;;;9.30;99.90;;;;;;4211498;28;20215;-73
2023/04/21 07:11:12;;;;;;;24.10;11.93;;;9.30;99.90;;;;;;4210320;28;20294;-73
2023/04/21 07:13:14;;;;;;;24.87;11.20;;;9.40;99.90;;;;;;4209058;28;20225;-73
2023/04/21 07:15:16;;;;;;;23.87;11.40;;;9.40;99.90;;;;;;4211179;28;20218;-73
2023/04/21 07:17:18;;;;;;;22.13;10.83;;;9.50;99.90;;;;;;4206650;28;20211;-73
2023/04/21 07:19:20;;;;;;;21.57;10.77;;;9.60;99.90;;;;;;4210166;28;20260;-73
2023/04/21 07:21:24;;;;;;;25.63;10.37;;;9.60;99.90;;;;;;4209769;28;20572;-73
2023/04/21 07:23:25;;;;;;;25.33;10.77;;;9.70;99.90;;;;;;4208047;28;20211;-73
2023/04/21 07:25:27;;;;;;;22.47;10.37;;;9.80;99.90;;;;;;4210331;28;20211;-73
2023/04/21 07:27:29;;;;;;;17.47;9.63;;;9.80;99.90;;;;;;4211232;28;20246;-73
2023/04/21 07:29:31;;;;;;;22.13;10.40;;;9.90;99.90;;;;;;4211935;28;20234;-78
2023/04/21 07:31:33;;;;;;;23.13;9.93;;;9.90;99.90;;;;;;4212303;28;20307;-72
2023/04/21 07:33:37;;;;;;;21.63;9.67;;;10.00;99.90;;;;;;4211706;28;20240;-72
2023/04/21 07:35:39;;;;;;;17.57;10.03;;;10.00;99.90;;;;;;4206165;28;20689;-72
2023/04/21 07:37:42;;;;;;;19.97;10.17;;;10.10;99.90;;;;;;4209397;28;20276;-73
2023/04/21 07:39:44;;;;;;;20.23;9.37;;;10.20;99.90;;;;;;4216145;28;20231;-73
2023/04/21 07:41:46;;;;;;;22.10;9.50;;;10.20;99.90;;;;;;4209232;28;20219;-74
2023/04/21 07:43:48;;;;;;;18.00;9.17;;;10.20;99.90;;;;;;4210424;28;20207;-74
2023/04/21 07:45:51;;;;;;;16.43;8.60;;;10.40;99.90;;;;;;4208409;28;20238;-74
2023/04/21 07:47:53;;;;;;;18.80;9.73;;;10.40;99.90;;;;;;4205291;28;20218;-74
2023/04/21 07:49:55;;;;;;;20.20;8.57;;;10.50;99.90;;;;;;4207876;28;20760;-74
2023/04/21 07:51:57;;;;;;;19.63;8.70;;;10.60;99.90;;;;;;4207867;28;20217;-74
2023/04/21 07:54:00;;;;;;;25.90;8.87;;;10.60;99.90;;;;;;4204624;28;20240;-74
2023/04/21 07:56:02;;;;;;;17.53;8.70;;;10.70;99.90;;;;;;4207326;28;20235;-74
2023/04/21 07:58:04;;;;;;;20.47;8.53;;;10.80;99.90;;;;;;4209804;28;20306;-73
2023/04/21 08:00:08;;;;;;;15.77;8.23;;;10.80;99.90;;;;;;4206871;28;20237;-74
2023/04/21 08:02:10;;;;;;;18.43;7.63;;;10.90;99.90;;;;;;4210460;28;20212;-73
2023/04/21 08:04:12;;;;;;;14.93;8.20;;;11.00;99.90;;;;;;4206029;28;20236;-77
2023/04/21 08:06:13;;;;;;;18.27;8.43;;;11.10;99.90;;;;;;4212566;28;20232;-74
2023/04/21 08:08:19;;;;;;;15.83;8.13;;;11.10;99.90;;;;;;4211052;28;20302;-74
2023/04/21 08:10:22;;;;;;;17.57;8.67;;;11.30;99.90;;;;;;4211551;28;20232;-75
2023/04/21 08:12:24;;;;;;;24.60;8.50;;;11.30;99.90;;;;;;4210347;28;20204;-75
2023/04/21 08:14:27;;;;;;;15.07;8.17;;;11.30;99.90;;;;;;4214190;28;20209;-75
2023/04/21 08:16:29;;;;;;;18.70;8.60;;;11.40;99.90;;;;;;4209552;28;20224;-77
2023/04/21 08:18:31;;;;;;;16.97;8.13;;;11.50;99.90;;;;;;4211084;28;20661;-77
2023/04/21 08:20:34;;;;;;;18.90;8.80;;;11.50;99.90;;;;;;4205056;28;20279;-74
2023/04/21 08:22:36;;;;;;;18.27;8.10;;;11.50;99.90;;;;;;4206217;28;20212;-74
2023/04/21 08:24:38;;;;;;;15.80;7.37;;;11.60;99.90;;;;;;4211638;28;20651;-74
2023/04/21 08:26:47;;;;;;;15.60;8.10;;;11.70;99.90;;;;;;4212807;28;20221;-74
2023/04/21 08:28:49;;;;;;;14.43;7.57;;;11.80;99.90;;;;;;4210334;28;20239;-74
2023/04/21 08:30:51;;;;;;;14.50;7.93;;;11.80;99.90;;;;;;4210537;28;20601;-74
2023/04/21 08:32:53;;;;;;;17.37;7.60;;;11.90;99.90;;;;;;4208774;28;20217;-75
2023/04/21 08:34:55;;;;;;;14.67;6.90;;;12.00;99.90;;;;;;4208440;28;20239;-74
2023/04/21 08:36:57;;;;;;;15.83;6.90;;;12.10;99.90;;;;;;4206964;28;20296;-74
2023/04/21 08:38:59;;;;;;;14.87;7.07;;;12.10;99.90;;;;;;4202179;28;20201;-74
2023/04/21 08:41:02;;;;;;;13.57;7.00;;;12.20;99.90;;;;;;4208702;28;20304;-74
2023/04/21 08:43:06;;;;;;;13.53;6.47;;;12.30;99.90;;;;;;4208855;28;20243;-73
2023/04/21 08:45:09;;;;;;;15.40;7.20;;;12.40;99.90;;;;;;4205644;28;20215;-74
2023/04/21 08:47:13;;;;;;;12.43;6.33;;;12.50;99.90;;;;;;4209037;28;20728;-74
2023/04/21 08:49:19;;;;;;;15.10;6.90;;;12.60;99.90;;;;;;4206752;28;20218;-74
2023/04/21 08:51:26;;;;;;;12.50;7.13;;;12.60;99.90;;;;;;4209410;28;20205;-74
2023/04/21 08:53:28;;;;;;;12.43;6.30;;;12.70;99.90;;;;;;4207170;28;20197;-73
2023/04/21 08:55:32;;;;;;;16.77;6.83;;;12.80;99.90;;;;;;4205878;28;20328;-73
2023/04/21 08:57:34;;;;;;;15.17;5.80;;;12.90;99.90;;;;;;4201659;28;20210;-73
2023/04/21 08:59:37;;;;;;;13.03;5.80;;;13.00;99.90;;;;;;4210003;28;20328;-73
2023/04/21 09:02:08;;;;;;;13.30;5.73;;;13.00;99.90;;;;;;4206538;28;20237;-72
2023/04/21 09:04:17;;;;;;;15.77;5.83;;;13.10;99.90;;;;;;4207377;28;20259;-73
2023/04/21 09:06:19;;;;;;;13.03;6.13;;;13.20;99.90;;;;;;4208769;28;20203;-73
2023/04/21 09:08:21;;;;;;;12.67;5.53;;;13.40;99.90;;;;;;4208613;28;20210;-73
2023/04/21 09:10:23;;;;;;;16.23;5.80;;;13.40;99.90;;;;;;4207394;28;20244;-73
2023/04/21 09:12:25;;;;;;;10.50;5.67;;;13.50;99.90;;;;;;4206136;28;20297;-73
2023/04/21 09:14:35;;;;;;;14.53;5.50;;;13.60;99.90;;;;;;4206620;28;20214;-73
2023/04/21 09:16:38;;;;;;;14.27;5.63;;;13.70;99.90;;;;;;4208285;28;20218;-73
2023/04/21 09:18:42;;;;;;;15.50;5.93;;;13.70;99.90;;;;;;4205828;28;20245;-73
2023/04/21 09:20:46;;;;;;;15.53;5.67;;;13.80;99.90;;;;;;4203629;28;20276;-74
2023/04/21 09:22:49;;;;;;;11.87;5.40;;;13.90;99.90;;;;;;4207546;28;20206;-73
2023/04/21 09:25:00;;;;;;;13.77;5.33;;;14.00;99.90;;;;;;4210937;28;20972;-74
2023/04/21 09:27:05;;;;;;;13.50;5.30;;;14.00;99.90;;;;;;4204787;28;20211;-73
2023/04/21 09:29:09;;;;;;;15.87;5.93;;;14.10;99.90;;;;;;4204745;28;20241;-72
2023/04/21 09:31:16;;;;;;;16.03;5.17;;;14.20;99.90;;;;;;4210006;28;20636;-72
2023/04/21 09:33:19;;;;;;;13.83;4.83;;;14.30;99.90;;;;;;4207737;28;20224;-72
2023/04/21 09:35:21;;;;;;;9.10;4.40;;;14.40;99.90;;;;;;4206073;28;20231;-73
2023/04/21 09:37:24;;;;;;;10.50;5.03;;;14.50;99.90;;;;;;4206835;28;20209;-73
2023/04/21 09:39:26;;;;;;;14.23;5.13;;;14.60;99.90;;;;;;4202561;28;20232;-73
2023/04/21 09:41:28;;;;;;;11.90;5.07;;;14.70;99.90;;;;;;4207309;28;20239;-73
2023/04/21 09:43:30;;;;;;;10.60;4.43;;;14.80;99.90;;;;;;4204295;28;20202;-73
2023/04/21 09:45:33;;;;;;;11.47;4.57;;;14.90;99.90;;;;;;4207551;28;20673;-72
2023/04/21 09:47:39;;;;;;;8.80;4.13;;;15.00;99.90;;;;;;4205500;28;20211;-73
2023/04/21 09:49:44;;;;;;;10.87;4.73;;;15.10;99.90;;;;;;4210099;28;20228;-74
2023/04/21 09:51:46;;;;;;;9.63;4.00;;;15.20;99.90;;;;;;4207712;28;20296;-73
2023/04/21 09:53:53;;;;;;;12.90;3.93;;;15.30;99.90;;;;;;4205854;28;20209;-73
2023/04/21 09:55:58;;;;;;;10.90;3.90;;;15.50;99.90;;;;;;4207131;28;20259;-74
2023/04/21 09:58:04;;;;;;;10.63;4.03;;;15.60;99.90;;;;;;4203842;28;20224;-73
2023/04/21 10:00:14;;;;;;;14.27;4.20;;;15.70;99.90;;;;;;4209048;28;20255;-73
2023/04/21 10:02:19;;;;;;;11.77;4.10;;;15.80;99.90;;;;;;4207762;28;20232;-74
2023/04/21 10:04:23;;;;;;;8.83;4.17;;;15.90;99.90;;;;;;4205601;28;20302;-73
2023/04/21 10:06:28;;;;;;;9.33;3.80;;;16.00;99.90;;;;;;4206574;28;20205;-74
2023/04/21 10:08:30;;;;;;;14.50;3.97;;;16.10;99.90;;;;;;4205810;28;20312;-74
2023/04/21 10:10:34;;;;;;;10.00;3.40;;;16.20;99.90;;;;;;4207032;28;20254;-73
2023/04/21 10:12:36;;;;;;;8.23;3.53;;;16.30;99.90;;;;;;4206214;28;20237;-75
2023/04/21 10:14:38;;;;;;;10.43;3.63;;;16.30;99.90;;;;;;4208015;28;20209;-75
2023/04/21 10:16:40;;;;;;;8.40;3.53;;;16.40;99.90;;;;;;4206976;28;20232;-77
2023/04/21 10:18:44;;;;;;;8.83;3.40;;;16.60;99.90;;;;;;4205012;28;20206;-72
2023/04/21 10:20:56;;;;;;;10.53;3.80;;;16.60;99.90;;;;;;4206858;28;20295;-72
2023/04/21 10:22:59;;;;;;;7.87;3.47;;;16.70;99.90;;;;;;4206617;28;20214;-72
2023/04/21 10:25:04;;;;;;;9.33;3.20;;;16.80;99.90;;;;;;4207352;28;20680;-72
2023/04/21 10:27:09;;;;;;;6.97;2.87;;;16.90;99.90;;;;;;4211377;28;20286;-72
2023/04/21 10:29:11;;;;;;;8.80;3.80;;;17.00;99.90;;;;;;4211435;28;20208;-72
2023/04/21 10:31:25;;;;;;;18.27;3.33;;;17.10;99.90;;;;;;4205512;28;20204;-72